sensor_id;sensor_type;location;lat;lon;timestamp;P1;durP1;ratioP1;P2;durP2;ratioP2
31010;SDS011;26395;53.412;19.598;2022-10-31T00:01:53;100.20;;;41.70;;
31010;SDS011;26395;53.412;19.598;2022-10-31T00:16:56;57.10;;;29.90;;
31010;SDS011;26395;53.412;19.598;2022-10-31T00:31:59;83.20;;;39.80;;
31010;SDS011;26395;53.412;19.598;2022-10-31T00:47:02;82.80;;;40.80;;
31010;SDS011;26395;53.412;19.598;2022-10-31T01:02:06;67.90;;;34.30;;
31010;SDS011;26395;53.412;19.598;2022-10-31T01:17:09;68.40;;;34.40;;
31010;SDS011;26395;53.412;19.598;2022-10-31T01:32:13;73.50;;;39.90;;
31010;SDS011;26395;53.412;19.598;2022-10-31T01:47:17;78.30;;;43.30;;
31010;SDS011;26395;53.412;19.598;2022-10-31T02:02:24;75.90;;;39.20;;
31010;SDS011;26395;53.412;19.598;2022-10-31T02:17:30;95.40;;;43.90;;
31010;SDS011;26395;53.412;19.598;2022-10-31T02:48:08;73.20;;;36.60;;
31010;SDS011;26395;53.412;19.598;2022-10-31T03:03:25;46.00;;;24.20;;
31010;SDS011;26395;53.412;19.598;2022-10-31T03:18:33;33.50;;;18.80;;
31010;SDS011;26395;53.412;19.598;2022-10-31T03:33:41;24.50;;;15.50;;
31010;SDS011;26395;53.412;19.598;2022-10-31T03:48:46;31.90;;;20.00;;
31010;SDS011;26395;53.412;19.598;2022-10-31T04:03:50;28.20;;;16.10;;
31010;SDS011;26395;53.412;19.598;2022-10-31T04:18:54;34.20;;;19.70;;
31010;SDS011;26395;53.412;19.598;2022-10-31T04:33:59;25.30;;;14.90;;
31010;SDS011;26395;53.412;19.598;2022-10-31T04:49:02;21.60;;;12.90;;
31010;SDS011;26395;53.412;19.598;2022-10-31T05:04:06;28.40;;;15.40;;
31010;SDS011;26395;53.412;19.598;2022-10-31T05:19:09;20.80;;;12.10;;
31010;SDS011;26395;53.412;19.598;2022-10-31T05:34:32;26.40;;;14.20;;
31010;SDS011;26395;53.412;19.598;2022-10-31T05:50:02;25.00;;;14.00;;
31010;SDS011;26395;53.412;19.598;2022-10-31T06:05:23;26.20;;;14.90;;
31010;SDS011;26395;53.412;19.598;2022-10-31T06:20:27;26.30;;;15.10;;
31010;SDS011;26395;53.412;19.598;2022-10-31T06:35:35;39.40;;;22.70;;
31010;SDS011;26395;53.412;19.598;2022-10-31T06:50:39;27.30;;;16.50;;
31010;SDS011;26395;53.412;19.598;2022-10-31T07:05:44;42.50;;;24.30;;
31010;SDS011;26395;53.412;19.598;2022-10-31T07:20:48;22.30;;;14.50;;
31010;SDS011;26395;53.412;19.598;2022-10-31T07:35:52;39.10;;;18.70;;
31010;SDS011;26395;53.412;19.598;2022-10-31T07:50:58;26.30;;;14.80;;
31010;SDS011;26395;53.412;19.598;2022-10-31T08:06:20;28.30;;;17.00;;
31010;SDS011;26395;53.412;19.598;2022-10-31T08:21:26;28.80;;;15.70;;
31010;SDS011;26395;53.412;19.598;2022-10-31T08:36:30;12.90;;;8.50;;
31010;SDS011;26395;53.412;19.598;2022-10-31T08:51:59;14.80;;;9.80;;
31010;SDS011;26395;53.412;19.598;2022-10-31T09:07:06;17.30;;;10.70;;
31010;SDS011;26395;53.412;19.598;2022-10-31T09:22:23;16.60;;;8.80;;
31010;SDS011;26395;53.412;19.598;2022-10-31T09:37:27;24.90;;;11.40;;
31010;SDS011;26395;53.412;19.598;2022-10-31T09:52:32;10.00;;;7.40;;
31010;SDS011;26395;53.412;19.598;2022-10-31T10:07:46;13.80;;;8.60;;
31010;SDS011;26395;53.412;19.598;2022-10-31T10:23:21;16.40;;;10.10;;
31010;SDS011;26395;53.412;19.598;2022-10-31T11:09:14;20.90;;;12.90;;
31010;SDS011;26395;53.412;19.598;2022-10-31T11:24:21;30.70;;;17.60;;
31010;SDS011;26395;53.412;19.598;2022-10-31T11:39:28;29.40;;;19.30;;
31010;SDS011;26395;53.412;19.598;2022-10-31T11:54:34;34.80;;;22.30;;
31010;SDS011;26395;53.412;19.598;2022-10-31T12:09:45;27.80;;;19.30;;
31010;SDS011;26395;53.412;19.598;2022-10-31T12:24:55;30.10;;;19.70;;
31010;SDS011;26395;53.412;19.598;2022-10-31T12:40:24;36.60;;;21.00;;
31010;SDS011;26395;53.412;19.598;2022-10-31T13:26:23;42.40;;;25.80;;
31010;SDS011;26395;53.412;19.598;2022-10-31T14:12:42;85.30;;;39.60;;
31010;SDS011;26395;53.412;19.598;2022-10-31T14:27:48;85.00;;;37.90;;
31010;SDS011;26395;53.412;19.598;2022-10-31T14:58:07;95.90;;;41.00;;
31010;SDS011;26395;53.412;19.598;2022-10-31T15:13:18;114.20;;;49.70;;
31010;SDS011;26395;53.412;19.598;2022-10-31T15:28:24;86.00;;;38.70;;
31010;SDS011;26395;53.412;19.598;2022-10-31T15:43:31;87.90;;;45.00;;
31010;SDS011;26395;53.412;19.598;2022-10-31T15:58:45;88.80;;;39.70;;
31010;SDS011;26395;53.412;19.598;2022-10-31T16:29:26;75.00;;;36.70;;
31010;SDS011;26395;53.412;19.598;2022-10-31T16:44:32;84.20;;;40.40;;
31010;SDS011;26395;53.412;19.598;2022-10-31T16:59:36;75.50;;;37.20;;
31010;SDS011;26395;53.412;19.598;2022-10-31T17:14:40;63.50;;;30.70;;
31010;SDS011;26395;53.412;19.598;2022-10-31T17:29:52;69.60;;;33.70;;
31010;SDS011;26395;53.412;19.598;2022-10-31T17:44:55;73.50;;;35.10;;
31010;SDS011;26395;53.412;19.598;2022-10-31T17:59:59;59.10;;;31.60;;
31010;SDS011;26395;53.412;19.598;2022-10-31T18:15:07;71.40;;;37.00;;
31010;SDS011;26395;53.412;19.598;2022-10-31T18:30:11;79.20;;;38.50;;
31010;SDS011;26395;53.412;19.598;2022-10-31T18:45:15;67.00;;;34.20;;
31010;SDS011;26395;53.412;19.598;2022-10-31T19:00:38;56.60;;;28.50;;
31010;SDS011;26395;53.412;19.598;2022-10-31T19:15:41;55.70;;;27.10;;
31010;SDS011;26395;53.412;19.598;2022-10-31T19:30:52;49.40;;;23.50;;
31010;SDS011;26395;53.412;19.598;2022-10-31T19:45:57;41.70;;;22.40;;
31010;SDS011;26395;53.412;19.598;2022-10-31T20:01:09;35.00;;;19.90;;
31010;SDS011;26395;53.412;19.598;2022-10-31T20:16:14;40.50;;;19.90;;
31010;SDS011;26395;53.412;19.598;2022-10-31T20:31:19;43.20;;;22.00;;
31010;SDS011;26395;53.412;19.598;2022-10-31T20:46:25;32.40;;;18.40;;
31010;SDS011;26395;53.412;19.598;2022-10-31T21:01:30;24.10;;;13.40;;
31010;SDS011;26395;53.412;19.598;2022-10-31T21:16:35;30.80;;;15.30;;
31010;SDS011;26395;53.412;19.598;2022-10-31T21:31:39;29.60;;;15.00;;
31010;SDS011;26395;53.412;19.598;2022-10-31T21:46:43;31.40;;;18.30;;
31010;SDS011;26395;53.412;19.598;2022-10-31T22:01:49;29.50;;;16.20;;
31010;SDS011;26395;53.412;19.598;2022-10-31T22:16:53;19.40;;;11.30;;
31010;SDS011;26395;53.412;19.598;2022-10-31T22:31:56;18.10;;;10.80;;
31010;SDS011;26395;53.412;19.598;2022-10-31T22:47:03;22.00;;;12.30;;
31010;SDS011;26395;53.412;19.598;2022-10-31T23:02:06;22.60;;;13.10;;
31010;SDS011;26395;53.412;19.598;2022-10-31T23:17:13;24.60;;;12.40;;
31010;SDS011;26395;53.412;19.598;2022-10-31T23:32:20;21.40;;;10.60;;
31010;SDS011;26395;53.412;19.598;2022-10-31T23:47:32;22.90;;;10.00;;
